Time;durP1;ratioP1;P1;durP2;ratioP2;P2;SDS_P1;SDS_P2;PMS_P1;PMS_P2;Temp;Humidity;BMP_temperature;BMP_pressure;BME280_temperature;BME280_humidity;BME280_pressure;Samples;Min_cycle;Max_cycle;Signal;HPM_P1;HPM_P2
2023/07/20 00:01:10;;;;;;;3.78;2.13;;;;;;;;;;5051083;28;20579;-77
2023/07/20 00:03:35;;;;;;;6.35;2.63;;;;;;;;;;5015459;28;20037;-77
2023/07/20 00:06:01;;;;;;;3.20;1.98;;;;;;;;;;5019740;28;20726;-77
2023/07/20 00:08:28;;;;;;;5.40;2.30;;;;;;;;;;5019162;28;20033;-76
2023/07/20 00:10:53;;;;;;;5.35;2.20;;;;;;;;;;5032818;28;20406;-77
2023/07/20 00:13:20;;;;;;;8.50;2.30;;;;;;;;;;5017296;28;20047;-76
2023/07/20 00:15:46;;;;;;;6.20;4.00;;;;;;;;;;5017472;28;20032;-76
2023/07/20 00:18:13;;;;;;;6.25;2.50;;;;;;;;;;5034607;28;20049;-76
2023/07/20 00:20:39;;;;;;;7.68;2.63;;;;;;;;;;5051300;28;20116;-76
2023/07/20 00:23:04;;;;;;;5.32;2.30;;;;;;;;;;5025090;28;20048;-76
2023/07/20 00:25:29;;;;;;;3.45;2.08;;;;;;;;;;5046976;28;20972;-76
2023/07/20 00:27:55;;;;;;;5.43;2.33;;;;;;;;;;5019355;28;20120;-77
2023/07/20 00:30:20;;;;;;;5.25;2.25;;;;;;;;;;5019215;28;20846;-75
2023/07/20 00:32:48;;;;;;;4.53;2.17;;;;;;;;;;5019424;28;20905;-76
2023/07/20 00:35:14;;;;;;;4.97;1.90;;;;;;;;;;5014169;28;20134;-76
2023/07/20 00:37:39;;;;;;;4.13;1.80;;;;;;;;;;5015841;28;22423;-76
2023/07/20 00:40:07;;;;;;;6.22;2.47;;;;;;;;;;5014153;28;20039;-76
2023/07/20 00:42:32;;;;;;;5.20;2.10;;;;;;;;;;5049191;28;20040;-77
2023/07/20 00:44:58;;;;;;;4.18;2.10;;;;;;;;;;5049835;28;20551;-77
2023/07/20 00:47:23;;;;;;;3.55;2.00;;;;;;;;;;5013765;28;20029;-77
2023/07/20 00:49:50;;;;;;;3.08;2.20;;;;;;;;;;5018002;28;20017;-76
2023/07/20 00:52:18;;;;;;;5.25;2.05;;;;;;;;;;5016873;28;20037;-75
2023/07/20 00:54:43;;;;;;;6.45;1.90;;;;;;;;;;5019257;28;20039;-75
2023/07/20 00:57:09;;;;;;;4.72;2.05;;;;;;;;;;5021067;28;20611;-76
2023/07/20 00:59:35;;;;;;;4.00;1.73;;;;;;;;;;5018511;28;20035;-76
2023/07/20 01:02:03;;;;;;;7.20;2.05;;;;;;;;;;5050790;28;20128;-76
2023/07/20 01:04:29;;;;;;;5.25;2.17;;;;;;;;;;5019161;28;20550;-76
2023/07/20 01:07:00;;;;;;;4.82;1.92;;;;;;;;;;5017255;28;20094;-76
2023/07/20 01:09:31;;;;;;;3.08;1.98;;;;;;;;;;5012515;28;20045;-75
2023/07/20 01:12:00;;;;;;;4.63;2.00;;;;;;;;;;5016415;28;20029;-75
2023/07/20 01:14:25;;;;;;;5.18;2.10;;;;;;;;;;5003150;28;20045;-75
2023/07/20 01:16:52;;;;;;;3.47;1.90;;;;;;;;;;5000127;28;20044;-75
2023/07/20 01:19:18;;;;;;;5.45;2.10;;;;;;;;;;5001464;28;20038;-75
2023/07/20 01:22:04;;;;;;;3.13;2.00;;;;;;;;;;4987830;28;20871;-76
2023/07/20 01:24:40;;;;;;;6.90;2.08;;;;;;;;;;5032352;28;20042;-75
2023/07/20 01:27:05;;;;;;;10.68;2.22;;;;;;;;;;5003719;28;20520;-75
2023/07/20 01:29:40;;;;;;;3.88;2.15;;;;;;;;;;5000204;28;20064;-75
2023/07/20 01:32:07;;;;;;;6.07;2.22;;;;;;;;;;5001822;28;20040;-75
2023/07/20 01:34:35;;;;;;;4.20;2.30;;;;;;;;;;5008935;28;20516;-76
2023/07/20 01:37:01;;;;;;;4.30;2.47;;;;;;;;;;5021765;28;20041;-75
2023/07/20 01:39:26;;;;;;;4.05;2.33;;;;;;;;;;5018440;28;21054;-75
2023/07/20 01:41:54;;;;;;;4.75;2.50;;;;;;;;;;5022122;28;20091;-76
2023/07/20 01:44:19;;;;;;;3.95;2.67;;;;;;;;;;5022425;28;20037;-75
2023/07/20 01:46:45;;;;;;;4.43;2.60;;;;;;;;;;5037355;28;20120;-75
2023/07/20 01:49:10;;;;;;;2.85;2.20;;;;;;;;;;5019716;28;20087;-75
2023/07/20 01:51:35;;;;;;;5.05;2.58;;;;;;;;;;5020427;28;20115;-76
2023/07/20 01:54:03;;;;;;;4.93;2.55;;;;;;;;;;5021540;28;20129;-75
2023/07/20 01:56:28;;;;;;;5.00;2.88;;;;;;;;;;5021085;28;22236;-75
2023/07/20 01:58:54;;;;;;;5.50;3.10;;;;;;;;;;5020521;28;20033;-75
2023/07/20 02:01:19;;;;;;;6.63;2.92;;;;;;;;;;5019871;28;20044;-75
2023/07/20 02:03:44;;;;;;;4.47;2.58;;;;;;;;;;5016914;28;20029;-76
2023/07/20 02:06:10;;;;;;;5.07;2.70;;;;;;;;;;5022467;28;20056;-76
2023/07/20 02:08:37;;;;;;;5.18;2.80;;;;;;;;;;5019734;28;20057;-76
2023/07/20 02:11:04;;;;;;;5.93;2.90;;;;;;;;;;5014423;28;20037;-75
2023/07/20 02:13:29;;;;;;;5.60;3.22;;;;;;;;;;5021941;28;20059;-75
2023/07/20 02:15:55;;;;;;;4.80;3.13;;;;;;;;;;5021591;28;20033;-76
2023/07/20 02:18:20;;;;;;;4.32;3.22;;;;;;;;;;5052445;28;20248;-75
2023/07/20 02:20:45;;;;;;;4.45;2.92;;;;;;;;;;5020035;28;20063;-76
2023/07/20 02:23:13;;;;;;;4.53;3.10;;;;;;;;;;5049926;28;20090;-76
2023/07/20 02:25:40;;;;;;;3.63;2.97;;;;;;;;;;5020085;28;20150;-75
2023/07/20 02:28:07;;;;;;;3.95;2.65;;;;;;;;;;5001660;28;20517;-76
2023/07/20 02:30:34;;;;;;;5.95;3.03;;;;;;;;;;4999351;28;20192;-76
2023/07/20 02:33:00;;;;;;;4.90;3.00;;;;;;;;;;4998474;28;20087;-75
2023/07/20 02:35:25;;;;;;;4.28;3.00;;;;;;;;;;5001747;28;20041;-75
2023/07/20 02:37:53;;;;;;;4.90;2.85;;;;;;;;;;5051748;28;20037;-75
2023/07/20 02:40:18;;;;;;;4.78;2.88;;;;;;;;;;5008478;28;20036;-75
2023/07/20 02:42:44;;;;;;;4.55;2.85;;;;;;;;;;5000679;28;20048;-75
2023/07/20 02:45:11;;;;;;;3.85;2.97;;;;;;;;;;5001276;28;20581;-75
2023/07/20 02:47:36;;;;;;;3.95;2.92;;;;;;;;;;4998959;28;20028;-74
2023/07/20 02:50:02;;;;;;;4.18;2.70;;;;;;;;;;4999038;28;20096;-74
2023/07/20 02:52:29;;;;;;;4.70;3.03;;;;;;;;;;5001491;28;20048;-74
2023/07/20 02:54:54;;;;;;;3.60;2.20;;;;;;;;;;5033794;28;20080;-74
2023/07/20 02:57:20;;;;;;;2.97;2.10;;;;;;;;;;5050604;28;20029;-75
2023/07/20 02:59:45;;;;;;;3.42;2.20;;;;;;;;;;5019769;28;20037;-75
2023/07/20 03:02:10;;;;;;;3.17;2.40;;;;;;;;;;5011978;28;20040;-74
2023/07/20 03:04:39;;;;;;;4.93;2.58;;;;;;;;;;5018557;28;20061;-75
2023/07/20 03:07:07;;;;;;;3.33;2.05;;;;;;;;;;5022438;28;20421;-75
2023/07/20 03:09:33;;;;;;;3.03;2.15;;;;;;;;;;5013139;28;20351;-75
2023/07/20 03:11:58;;;;;;;3.55;2.13;;;;;;;;;;5000792;28;20033;-74
2023/07/20 03:14:23;;;;;;;3.70;2.20;;;;;;;;;;4997708;28;20101;-74
2023/07/20 03:16:51;;;;;;;4.53;2.30;;;;;;;;;;5008070;28;20048;-74
2023/07/20 03:19:16;;;;;;;3.13;1.90;;;;;;;;;;5018862;28;20047;-74
2023/07/20 03:21:42;;;;;;;2.72;2.25;;;;;;;;;;5012787;28;1068676;-75
2023/07/20 03:24:08;;;;;;;3.38;1.90;;;;;;;;;;5013729;28;20067;-74
2023/07/20 03:26:34;;;;;;;2.80;2.05;;;;;;;;;;5022216;28;20041;-75
2023/07/20 03:28:59;;;;;;;5.22;2.50;;;;;;;;;;5020208;28;20099;-74
2023/07/20 03:31:25;;;;;;;3.25;2.25;;;;;;;;;;5050713;28;20033;-75
2023/07/20 03:33:52;;;;;;;3.15;2.25;;;;;;;;;;5017923;28;20033;-75
2023/07/20 03:36:18;;;;;;;3.75;1.98;;;;;;;;;;5017877;28;20033;-75
2023/07/20 03:38:43;;;;;;;3.03;1.98;;;;;;;;;;5018310;28;20104;-79
2023/07/20 03:41:09;;;;;;;3.92;2.20;;;;;;;;;;5042414;28;20091;-80
2023/07/20 03:43:34;;;;;;;3.58;2.80;;;;;;;;;;5079729;28;20021;-79
2023/07/20 03:45:59;;;;;;;3.17;2.40;;;;;;;;;;5049761;28;20041;-80
2023/07/20 03:48:27;;;;;;;4.00;2.45;;;;;;;;;;5049732;28;20039;-78
2023/07/20 03:50:53;;;;;;;3.25;2.40;;;;;;;;;;5048478;28;20025;-79
2023/07/20 03:53:19;;;;;;;2.88;2.05;;;;;;;;;;5046703;28;20047;-79
2023/07/20 03:55:46;;;;;;;3.70;2.70;;;;;;;;;;5048173;28;20025;-79
2023/07/20 03:58:11;;;;;;;4.10;2.75;;;;;;;;;;5046668;28;20036;-78
2023/07/20 04:00:39;;;;;;;7.57;3.10;;;;;;;;;;5030442;28;20357;-79
2023/07/20 04:03:05;;;;;;;5.25;3.40;;;;;;;;;;5042873;28;20159;-79
2023/07/20 04:05:30;;;;;;;4.15;2.83;;;;;;;;;;5046119;28;20120;-80
2023/07/20 04:07:59;;;;;;;4.18;3.10;;;;;;;;;;5047241;28;20041;-79
2023/07/20 04:10:25;;;;;;;3.83;2.90;;;;;;;;;;5047925;28;20025;-80
2023/07/20 04:12:50;;;;;;;3.60;2.90;;;;;;;;;;5079369;28;20037;-80
2023/07/20 04:15:15;;;;;;;4.90;2.97;;;;;;;;;;5046309;28;20419;-80
2023/07/20 04:17:44;;;;;;;3.33;2.80;;;;;;;;;;5046746;28;20041;-79
2023/07/20 04:20:09;;;;;;;4.40;2.60;;;;;;;;;;5045470;28;20043;-80
2023/07/20 04:22:35;;;;;;;3.53;2.63;;;;;;;;;;5007899;28;20026;-80
2023/07/20 04:25:00;;;;;;;5.38;2.70;;;;;;;;;;5008435;28;20029;-80
2023/07/20 04:27:26;;;;;;;3.28;2.60;;;;;;;;;;5064993;28;20020;-79
2023/07/20 04:29:54;;;;;;;3.22;2.47;;;;;;;;;;5066091;28;20021;-80
2023/07/20 04:32:19;;;;;;;3.80;3.00;;;;;;;;;;5067267;28;20150;-79
2023/07/20 04:34:44;;;;;;;4.07;2.80;;;;;;;;;;5067706;28;20465;-79
2023/07/20 04:37:09;;;;;;;4.68;3.05;;;;;;;;;;5066079;28;20070;-78
2023/07/20 04:39:35;;;;;;;3.80;2.67;;;;;;;;;;5065937;28;20346;-78
2023/07/20 04:42:00;;;;;;;3.58;2.92;;;;;;;;;;5066874;28;20025;-78
2023/07/20 04:44:28;;;;;;;3.30;2.88;;;;;;;;;;5067546;28;20036;-79
2023/07/20 04:46:53;;;;;;;5.68;2.70;;;;;;;;;;5065306;28;20588;-79
2023/07/20 04:49:18;;;;;;;3.33;2.80;;;;;;;;;;5066042;28;20029;-80
2023/07/20 04:51:46;;;;;;;2.95;2.50;;;;;;;;;;5068435;28;20085;-80
2023/07/20 04:54:11;;;;;;;4.05;2.95;;;;;;;;;;5067787;28;20020;-81
2023/07/20 04:56:36;;;;;;;3.83;2.75;;;;;;;;;;5065761;28;20440;-81
2023/07/20 04:59:02;;;;;;;3.30;2.90;;;;;;;;;;5068839;28;20074;-81
2023/07/20 05:01:29;;;;;;;3.10;2.78;;;;;;;;;;5067875;28;20031;-79
2023/07/20 05:03:55;;;;;;;3.45;2.80;;;;;;;;;;5030634;28;20869;-79
2023/07/20 05:06:20;;;;;;;3.40;2.20;;;;;;;;;;5031946;28;20045;-71
2023/07/20 05:08:45;;;;;;;3.08;2.22;;;;;;;;;;5054511;28;20037;-71
2023/07/20 05:11:11;;;;;;;4.82;2.20;;;;;;;;;;5024137;28;20028;-72
2023/07/20 05:13:37;;;;;;;4.30;1.95;;;;;;;;;;5024768;28;20044;-72
2023/07/20 05:16:02;;;;;;;4.43;1.67;;;;;;;;;;5062059;28;20392;-72
2023/07/20 05:18:27;;;;;;;4.93;1.30;;;;;;;;;;5028668;28;20036;-72
2023/07/20 05:20:54;;;;;;;1.77;1.00;;;;;;;;;;5028413;28;20041;-71
2023/07/20 05:23:23;;;;;;;4.85;1.40;;;;;;;;;;5033617;28;20156;-72
2023/07/20 05:25:58;;;;;;;5.65;2.22;;;;;;;;;;5042681;28;20045;-72
2023/07/20 05:28:23;;;;;;;3.30;1.35;;;;;;;;;;5014891;28;20108;-72
2023/07/20 05:30:51;;;;;;;1.63;0.90;;;;;;;;;;5022228;28;20409;-73
2023/07/20 05:33:16;;;;;;;7.43;1.30;;;;;;;;;;5035258;28;20315;-72
2023/07/20 05:35:41;;;;;;;5.30;1.10;;;;;;;;;;5034505;28;20033;-72
2023/07/20 05:38:07;;;;;;;4.40;0.80;;;;;;;;;;5033102;28;20063;-81
2023/07/20 05:40:32;;;;;;;4.32;0.95;;;;;;;;;;5048407;28;20156;-82
2023/07/20 05:42:58;;;;;;;7.40;1.10;;;;;;;;;;5023549;28;20038;-81
2023/07/20 05:45:24;;;;;;;3.40;0.90;;;;;;;;;;5027712;28;20038;-80
2023/07/20 05:47:49;;;;;;;7.03;1.00;;;;;;;;;;5024289;28;20040;-81
2023/07/20 05:50:17;;;;;;;6.30;1.00;;;;;;;;;;5058763;28;20025;-79
2023/07/20 05:52:42;;;;;;;7.38;1.00;;;;;;;;;;5005253;28;20085;-81
2023/07/20 05:55:07;;;;;;;27.52;2.38;;;;;;;;;;5007313;28;20025;-79
2023/07/20 05:57:35;;;;;;;19.73;1.50;;;;;;;;;;5022044;28;20116;-81
2023/07/20 06:00:00;;;;;;;16.95;1.60;;;;;;;;;;5030302;28;20034;-81
2023/07/20 06:02:26;;;;;;;32.83;3.38;;;;;;;;;;5031416;28;20466;-78
2023/07/20 06:04:51;;;;;;;8.20;0.82;;;;;;;;;;5029383;28;20033;-80
2023/07/20 06:07:16;;;;;;;3.00;0.55;;;;;;;;;;5027769;28;20509;-79
2023/07/20 06:09:42;;;;;;;4.22;1.30;;;;;;;;;;5034387;28;20489;-76
2023/07/20 06:12:10;;;;;;;6.45;1.65;;;;;;;;;;5043364;28;20075;-77
2023/07/20 06:14:35;;;;;;;9.32;1.98;;;;;;;;;;5026187;28;20037;-80
2023/07/20 06:17:00;;;;;;;4.90;0.77;;;;;;;;;;5030623;28;20029;-78
2023/07/20 06:19:26;;;;;;;8.05;1.67;;;;;;;;;;5062160;28;20065;-78
2023/07/20 06:21:51;;;;;;;4.15;0.93;;;;;;;;;;5034538;28;20037;-78
2023/07/20 06:24:17;;;;;;;4.03;0.63;;;;;;;;;;5058322;28;20107;-79
2023/07/20 06:26:42;;;;;;;3.35;0.40;;;;;;;;;;5059007;28;20037;-76
2023/07/20 06:29:08;;;;;;;3.42;0.50;;;;;;;;;;4994412;28;20640;-73
2023/07/20 06:31:34;;;;;;;3.17;0.55;;;;;;;;;;5007410;28;20045;-73
2023/07/20 06:34:00;;;;;;;1.90;0.40;;;;;;;;;;5010110;28;20065;-71
2023/07/20 06:36:26;;;;;;;1.08;0.50;;;;;;;;;;5026414;28;20622;-73
2023/07/20 06:38:51;;;;;;;4.10;0.68;;;;;;;;;;5025421;28;20039;-74
2023/07/20 06:41:17;;;;;;;1.75;0.50;;;;;;;;;;5018793;28;20033;-73
2023/07/20 06:43:42;;;;;;;1.45;0.52;;;;;;;;;;5023204;28;20745;-73
2023/07/20 06:46:07;;;;;;;4.60;0.60;;;;;;;;;;5022994;28;20119;-72
2023/07/20 06:48:33;;;;;;;2.53;0.47;;;;;;;;;;5054849;28;20037;-74
2023/07/20 06:50:58;;;;;;;2.28;0.43;;;;;;;;;;5056140;28;20029;-74
2023/07/20 06:53:24;;;;;;;2.88;0.50;;;;;;;;;;5038533;28;20412;-72
2023/07/20 06:55:49;;;;;;;6.82;0.90;;;;;;;;;;5021017;28;20037;-73
2023/07/20 06:58:15;;;;;;;1.50;0.50;;;;;;;;;;5020371;28;20128;-72
2023/07/20 07:00:40;;;;;;;2.35;0.63;;;;;;;;;;5022633;28;20033;-72
2023/07/20 07:03:05;;;;;;;6.43;0.90;;;;;;;;;;5019498;28;20535;-73
2023/07/20 07:05:30;;;;;;;5.05;0.60;;;;;;;;;;5023627;28;20098;-72
2023/07/20 07:07:56;;;;;;;2.30;0.60;;;;;;;;;;5034190;28;20079;-72
2023/07/20 07:10:21;;;;;;;3.70;0.70;;;;;;;;;;5016702;28;20173;-72
2023/07/20 07:12:47;;;;;;;7.78;2.08;;;;;;;;;;5024509;28;20083;-73
2023/07/20 07:15:12;;;;;;;1.45;0.60;;;;;;;;;;5019339;28;20041;-72
2023/07/20 07:17:38;;;;;;;2.38;0.60;;;;;;;;;;5008747;28;20053;-72
2023/07/20 07:20:03;;;;;;;2.13;0.55;;;;;;;;;;5016024;28;20285;-72
2023/07/20 07:22:31;;;;;;;3.72;0.98;;;;;;;;;;5030201;28;20040;-72
2023/07/20 07:24:56;;;;;;;5.38;1.00;;;;;;;;;;5015348;28;20037;-72
2023/07/20 07:27:22;;;;;;;3.80;1.20;;;;;;;;;;5051003;28;20167;-72
2023/07/20 07:29:49;;;;;;;2.63;0.80;;;;;;;;;;5017904;28;20033;-73
2023/07/20 07:32:16;;;;;;;0.80;0.50;;;;;;;;;;5016999;28;20590;-72
2023/07/20 07:34:46;;;;;;;2.92;0.60;;;;;;;;;;4992288;28;20193;-72
2023/07/20 07:37:11;;;;;;;2.58;1.10;;;;;;;;;;4997616;28;20033;-73
2023/07/20 07:39:37;;;;;;;2.17;0.80;;;;;;;;;;4991664;28;20521;-73
2023/07/20 07:42:02;;;;;;;4.97;1.90;;;;;;;;;;5016502;28;20037;-74
2023/07/20 07:44:30;;;;;;;3.72;1.10;;;;;;;;;;5019465;28;20056;-73
2023/07/20 07:46:57;;;;;;;1.90;0.63;;;;;;;;;;5021104;28;20051;-72
2023/07/20 07:49:23;;;;;;;2.28;0.60;;;;;;;;;;5018612;28;20032;-72
2023/07/20 07:51:48;;;;;;;2.25;0.50;;;;;;;;;;5023806;28;20115;-73
2023/07/20 07:54:14;;;;;;;2.50;0.55;;;;;;;;;;5021563;28;20041;-73
2023/07/20 07:56:39;;;;;;;1.67;0.63;;;;;;;;;;5019556;28;20030;-73
2023/07/20 07:59:06;;;;;;;4.15;0.63;;;;;;;;;;5020618;28;20048;-72
2023/07/20 08:01:34;;;;;;;1.95;0.50;;;;;;;;;;5023943;28;20033;-72
2023/07/20 08:04:04;;;;;;;1.45;0.60;;;;;;;;;;5049601;28;20730;-73
2023/07/20 08:06:29;;;;;;;4.50;0.50;;;;;;;;;;4999408;28;20056;-72
2023/07/20 08:08:54;;;;;;;1.73;0.45;;;;;;;;;;5016532;28;20057;-72
2023/07/20 08:11:20;;;;;;;17.65;1.38;;;;;;;;;;5018225;28;20060;-72
2023/07/20 08:13:45;;;;;;;3.47;0.50;;;;;;;;;;5015400;28;20290;-73
2023/07/20 08:16:10;;;;;;;2.40;0.85;;;;;;;;;;5016843;28;20143;-72
2023/07/20 08:18:36;;;;;;;2.25;0.50;;;;;;;;;;5008348;28;20037;-70
2023/07/20 08:21:01;;;;;;;0.80;0.40;;;;;;;;;;5018924;28;20040;-71
2023/07/20 08:23:27;;;;;;;4.35;0.70;;;;;;;;;;5018494;28;20512;-70
2023/07/20 08:25:53;;;;;;;3.72;0.57;;;;;;;;;;5017081;28;20045;-70
2023/07/20 08:28:18;;;;;;;2.92;0.60;;;;;;;;;;5015091;28;20041;-70
2023/07/20 08:30:46;;;;;;;4.32;0.70;;;;;;;;;;5016875;28;20029;-70
2023/07/20 08:33:19;;;;;;;8.48;0.70;;;;;;;;;;5007900;28;20029;-71
2023/07/20 08:35:44;;;;;;;3.38;0.60;;;;;;;;;;4995891;28;20504;-70
2023/07/20 08:38:09;;;;;;;2.42;0.65;;;;;;;;;;5012612;28;20774;-70
2023/07/20 08:40:47;;;;;;;5.38;0.70;;;;;;;;;;4997060;28;20125;-71
2023/07/20 08:43:13;;;;;;;2.15;0.65;;;;;;;;;;5012862;28;20063;-71
2023/07/20 08:45:39;;;;;;;1.75;0.60;;;;;;;;;;5048519;28;20508;-70
2023/07/20 08:48:07;;;;;;;2.65;0.60;;;;;;;;;;5007956;28;20397;-71
2023/07/20 08:50:33;;;;;;;1.15;0.50;;;;;;;;;;5046548;28;20076;-70
2023/07/20 08:52:59;;;;;;;3.10;0.50;;;;;;;;;;5032964;28;20057;-70
2023/07/20 08:55:27;;;;;;;2.10;0.40;;;;;;;;;;5018083;28;20033;-70
2023/07/20 08:57:54;;;;;;;1.75;0.60;;;;;;;;;;5019130;28;20154;-70
2023/07/20 09:00:20;;;;;;;1.65;0.60;;;;;;;;;;5017460;28;20041;-70
2023/07/20 09:02:46;;;;;;;4.13;0.60;;;;;;;;;;5048841;28;20033;-69
2023/07/20 09:05:15;;;;;;;18.08;1.98;;;;;;;;;;5019866;28;20036;-68
2023/07/20 09:07:40;;;;;;;3.95;0.68;;;;;;;;;;5017421;28;20091;-70
2023/07/20 09:10:06;;;;;;;5.00;0.80;;;;;;;;;;5046758;28;20498;-70
2023/07/20 09:12:35;;;;;;;1.40;0.50;;;;;;;;;;5016873;28;20033;-70
2023/07/20 09:15:02;;;;;;;2.55;0.70;;;;;;;;;;5018288;28;21932;-70
2023/07/20 09:17:28;;;;;;;4.53;0.68;;;;;;;;;;4994005;28;20037;-71
2023/07/20 09:19:53;;;;;;;2.67;1.25;;;;;;;;;;4997180;28;20045;-71
2023/07/20 09:22:19;;;;;;;1.95;0.95;;;;;;;;;;5011808;28;20100;-71
2023/07/20 09:24:44;;;;;;;3.80;0.95;;;;;;;;;;4997529;28;20099;-71
2023/07/20 09:27:10;;;;;;;2.78;0.68;;;;;;;;;;5014000;28;20642;-72
2023/07/20 09:29:51;;;;;;;3.55;0.88;;;;;;;;;;5017423;28;20084;-71
2023/07/20 09:32:23;;;;;;;1.70;0.70;;;;;;;;;;5018650;28;20108;-72
2023/07/20 09:34:51;;;;;;;3.17;0.80;;;;;;;;;;5033108;28;20087;-71
2023/07/20 09:37:20;;;;;;;5.78;0.90;;;;;;;;;;5022261;28;20172;-70
2023/07/20 09:39:45;;;;;;;3.45;0.80;;;;;;;;;;5023940;28;20509;-72
2023/07/20 09:42:17;;;;;;;2.33;0.73;;;;;;;;;;5034411;28;20040;-69
2023/07/20 09:44:43;;;;;;;2.65;0.60;;;;;;;;;;5018696;28;20033;-70
2023/07/20 09:47:09;;;;;;;2.63;0.60;;;;;;;;;;5022090;28;20131;-71
2023/07/20 09:49:38;;;;;;;3.30;0.70;;;;;;;;;;5020176;28;20033;-72
2023/07/20 09:52:06;;;;;;;4.78;0.73;;;;;;;;;;5028215;28;20040;-71
2023/07/20 09:54:32;;;;;;;1.38;0.55;;;;;;;;;;5013135;28;20116;-72
2023/07/20 09:57:02;;;;;;;7.03;0.77;;;;;;;;;;5026091;28;20075;-71
2023/07/20 09:59:30;;;;;;;2.10;0.70;;;;;;;;;;5029319;28;20603;-71
2023/07/20 10:01:57;;;;;;;1.85;0.50;;;;;;;;;;5059999;28;20037;-71
2023/07/20 10:04:26;;;;;;;2.25;0.50;;;;;;;;;;5028513;28;22156;-72
2023/07/20 10:06:56;;;;;;;1.40;0.70;;;;;;;;;;5028110;28;20037;-69
2023/07/20 10:09:22;;;;;;;1.17;0.50;;;;;;;;;;5024510;28;20029;-71
2023/07/20 10:11:50;;;;;;;3.63;0.70;;;;;;;;;;5057499;28;20037;-70
2023/07/20 10:14:19;;;;;;;1.67;0.63;;;;;;;;;;5021544;28;20041;-71
2023/07/20 10:16:49;;;;;;;0.98;0.50;;;;;;;;;;5053711;28;20048;-73
2023/07/20 10:19:26;;;;;;;2.67;0.50;;;;;;;;;;5025210;28;20037;-71
2023/07/20 10:21:56;;;;;;;3.42;1.27;;;;;;;;;;5020083;28;20045;-70
2023/07/20 10:24:21;;;;;;;2.67;0.63;;;;;;;;;;5017177;28;20047;-69
2023/07/20 10:26:47;;;;;;;3.05;0.63;;;;;;;;;;5051639;28;20041;-69
2023/07/20 10:29:13;;;;;;;4.70;1.00;;;;;;;;;;5018199;28;20044;-72
2023/07/20 10:31:38;;;;;;;4.43;1.00;;;;;;;;;;5050391;28;20900;-73
2023/07/20 10:34:04;;;;;;;2.67;0.70;;;;;;;;;;5018166;28;20033;-70
2023/07/20 10:36:32;;;;;;;4.03;0.82;;;;;;;;;;5018069;28;20481;-72
2023/07/20 10:38:57;;;;;;;3.15;0.57;;;;;;;;;;5033772;28;20037;-72
2023/07/20 10:41:33;;;;;;;2.80;0.70;;;;;;;;;;5018082;28;20048;-71
2023/07/20 10:44:07;;;;;;;2.88;0.80;;;;;;;;;;5013508;28;20529;-69
2023/07/20 10:46:42;;;;;;;2.92;0.80;;;;;;;;;;5017730;28;20048;-70
2023/07/20 10:49:09;;;;;;;3.28;0.85;;;;;;;;;;4997667;28;20038;-71
2023/07/20 10:51:44;;;;;;;4.18;0.60;;;;;;;;;;5004806;28;25340;-69
2023/07/20 10:54:16;;;;;;;3.08;0.60;;;;;;;;;;4989262;28;20045;-68
2023/07/20 10:56:42;;;;;;;4.93;1.30;;;;;;;;;;5027821;28;20042;-71
2023/07/20 10:59:38;;;;;;;2.08;0.73;;;;;;;;;;5010510;28;20108;-69
2023/07/20 11:02:07;;;;;;;1.30;0.70;;;;;;;;;;5000253;28;20034;-70
2023/07/20 11:04:41;;;;;;;3.10;0.63;;;;;;;;;;5013477;28;20034;-70
2023/07/20 11:07:07;;;;;;;1.83;0.70;;;;;;;;;;5033970;28;20053;-70
2023/07/20 11:09:39;;;;;;;1.98;0.57;;;;;;;;;;5030375;28;20041;-71
2023/07/20 11:12:10;;;;;;;1.10;0.60;;;;;;;;;;5000650;28;20742;-70
2023/07/20 11:14:40;;;;;;;4.30;0.80;;;;;;;;;;4995158;28;20034;-70
2023/07/20 11:17:14;;;;;;;3.70;0.70;;;;;;;;;;4981282;28;20097;-70
2023/07/20 11:19:43;;;;;;;1.55;0.50;;;;;;;;;;5000330;28;20071;-68
2023/07/20 11:22:09;;;;;;;1.92;0.57;;;;;;;;;;5030179;28;20053;-70
2023/07/20 11:24:37;;;;;;;2.58;0.60;;;;;;;;;;5018907;28;20041;-72
2023/07/20 11:27:05;;;;;;;6.32;0.82;;;;;;;;;;4982283;28;20124;-70
2023/07/20 11:29:34;;;;;;;3.67;0.70;;;;;;;;;;4999324;28;20056;-72
2023/07/20 11:32:00;;;;;;;1.40;0.60;;;;;;;;;;5001089;28;20112;-72
2023/07/20 11:34:28;;;;;;;1.52;0.65;;;;;;;;;;4999615;28;20099;-75
2023/07/20 11:36:54;;;;;;;2.45;0.90;;;;;;;;;;5002462;28;20045;-73
2023/07/20 11:39:24;;;;;;;1.92;0.50;;;;;;;;;;5000099;28;20063;-70
2023/07/20 11:41:50;;;;;;;2.30;0.60;;;;;;;;;;4979430;28;20044;-71
2023/07/20 11:44:20;;;;;;;1.30;0.68;;;;;;;;;;4994149;28;20284;-72
2023/07/20 11:46:48;;;;;;;2.38;0.50;;;;;;;;;;4998544;28;20140;-72
2023/07/20 11:49:13;;;;;;;1.60;0.50;;;;;;;;;;5001692;28;20033;-73
2023/07/20 11:51:39;;;;;;;3.97;0.70;;;;;;;;;;4999929;28;20037;-70
2023/07/20 11:54:08;;;;;;;1.67;0.50;;;;;;;;;;5001413;28;20046;-68
2023/07/20 11:56:33;;;;;;;2.97;0.90;;;;;;;;;;5001986;28;20075;-68
2023/07/20 11:59:02;;;;;;;1.25;0.73;;;;;;;;;;5000404;28;20061;-72
2023/07/20 12:01:29;;;;;;;1.55;0.60;;;;;;;;;;5001267;28;20033;-68
2023/07/20 12:04:01;;;;;;;2.30;0.70;;;;;;;;;;5000520;28;21122;-69
2023/07/20 12:06:30;;;;;;;1.02;0.50;;;;;;;;;;4997012;28;20850;-67
2023/07/20 12:08:56;;;;;;;7.70;1.35;;;;;;;;;;4994753;28;20046;-70
2023/07/20 12:11:31;;;;;;;2.17;0.60;;;;;;;;;;4999692;28;20839;-70
2023/07/20 12:13:57;;;;;;;1.13;0.60;;;;;;;;;;4998772;28;20041;-71
2023/07/20 12:16:26;;;;;;;1.58;0.60;;;;;;;;;;4998065;28;20108;-70
2023/07/20 12:18:58;;;;;;;0.90;0.60;;;;;;;;;;4996400;28;20982;-70
2023/07/20 12:21:24;;;;;;;2.85;0.65;;;;;;;;;;5016301;28;20045;-70
2023/07/20 12:23:49;;;;;;;1.60;0.65;;;;;;;;;;5018039;28;20033;-69
2023/07/20 12:26:17;;;;;;;4.50;0.80;;;;;;;;;;5018555;28;20045;-67
2023/07/20 12:28:42;;;;;;;2.30;0.52;;;;;;;;;;5015101;28;20051;-67
2023/07/20 12:31:13;;;;;;;41.42;3.78;;;;;;;;;;5015055;28;21804;-71
2023/07/20 12:33:38;;;;;;;5.57;0.90;;;;;;;;;;5016881;28;20029;-71
2023/07/20 12:36:04;;;;;;;2.58;0.60;;;;;;;;;;5017890;28;20036;-69
2023/07/20 12:38:30;;;;;;;10.98;1.10;;;;;;;;;;5049838;28;20473;-69
2023/07/20 12:40:56;;;;;;;11.40;1.50;;;;;;;;;;5016488;28;20612;-71
2023/07/20 12:43:21;;;;;;;1.55;0.68;;;;;;;;;;5014438;28;20041;-71
2023/07/20 12:45:49;;;;;;;3.13;1.05;;;;;;;;;;5017046;28;20051;-68
2023/07/20 12:48:19;;;;;;;1.80;0.50;;;;;;;;;;5019498;28;20029;-73
2023/07/20 12:50:47;;;;;;;1.55;0.60;;;;;;;;;;5022096;28;20059;-69
2023/07/20 12:53:12;;;;;;;2.13;0.57;;;;;;;;;;5001672;28;20037;-69
2023/07/20 12:55:40;;;;;;;6.30;0.75;;;;;;;;;;5021220;28;20789;-70
2023/07/20 12:58:09;;;;;;;2.15;0.60;;;;;;;;;;5049977;28;20034;-72
2023/07/20 13:00:37;;;;;;;4.35;0.70;;;;;;;;;;5020651;28;20174;-71
2023/07/20 13:03:04;;;;;;;4.38;0.80;;;;;;;;;;5015720;28;20029;-69
2023/07/20 13:05:31;;;;;;;3.95;0.73;;;;;;;;;;5011541;28;20195;-68
2023/07/20 13:07:57;;;;;;;8.75;0.88;;;;;;;;;;5018373;28;20185;-68
2023/07/20 13:10:24;;;;;;;3.72;0.68;;;;;;;;;;5033179;28;20528;-68
2023/07/20 13:12:50;;;;;;;1.42;0.47;;;;;;;;;;5023153;28;20055;-68
2023/07/20 13:15:16;;;;;;;1.13;0.50;;;;;;;;;;5033722;28;21021;-68
2023/07/20 13:17:41;;;;;;;1.30;0.60;;;;;;;;;;5018341;28;20631;-68
2023/07/20 13:20:09;;;;;;;1.27;0.50;;;;;;;;;;5019602;28;20046;-68
2023/07/20 13:22:37;;;;;;;3.33;0.63;;;;;;;;;;5019337;28;20073;-68
2023/07/20 13:25:03;;;;;;;0.77;0.50;;;;;;;;;;5018032;28;20033;-67
2023/07/20 13:27:30;;;;;;;1.90;0.75;;;;;;;;;;5018959;28;20131;-67
2023/07/20 13:29:55;;;;;;;2.60;0.63;;;;;;;;;;4999406;28;20155;-68
2023/07/20 13:32:20;;;;;;;1.17;0.60;;;;;;;;;;5048278;28;20039;-69
2023/07/20 13:34:46;;;;;;;5.15;1.05;;;;;;;;;;5031651;28;20094;-67
2023/07/20 13:37:14;;;;;;;1.45;0.60;;;;;;;;;;5017846;28;20064;-68
2023/07/20 13:39:39;;;;;;;1.25;0.50;;;;;;;;;;5018248;28;20379;-68
2023/07/20 13:42:05;;;;;;;1.33;0.60;;;;;;;;;;5018695;28;20049;-70
2023/07/20 13:44:37;;;;;;;1.13;0.68;;;;;;;;;;5016506;28;20051;-67
2023/07/20 13:47:03;;;;;;;3.95;0.70;;;;;;;;;;5017275;28;20489;-67
2023/07/20 13:49:28;;;;;;;1.25;0.80;;;;;;;;;;5016211;28;20514;-67
2023/07/20 13:51:53;;;;;;;1.50;0.73;;;;;;;;;;5016896;28;20187;-68
2023/07/20 13:54:19;;;;;;;1.52;0.68;;;;;;;;;;5017287;28;20041;-68
2023/07/20 13:56:44;;;;;;;2.63;0.70;;;;;;;;;;5016808;28;20488;-67
2023/07/20 13:59:09;;;;;;;2.15;0.52;;;;;;;;;;5051053;28;20037;-68
2023/07/20 14:01:35;;;;;;;2.40;0.60;;;;;;;;;;5016350;28;20033;-69
2023/07/20 14:04:01;;;;;;;1.70;0.60;;;;;;;;;;5051635;28;20045;-68
2023/07/20 14:06:31;;;;;;;5.03;0.70;;;;;;;;;;5019492;28;20049;-69
2023/07/20 14:08:59;;;;;;;1.38;0.60;;;;;;;;;;5049863;28;20207;-67
2023/07/20 14:11:25;;;;;;;1.83;0.60;;;;;;;;;;5018303;28;20029;-67
2023/07/20 14:13:51;;;;;;;3.20;0.70;;;;;;;;;;5046818;28;20397;-68
2023/07/20 14:16:16;;;;;;;1.27;0.70;;;;;;;;;;5018673;28;20037;-66
2023/07/20 14:18:42;;;;;;;3.05;0.70;;;;;;;;;;5015924;28;20367;-68
2023/07/20 14:21:08;;;;;;;1.83;0.70;;;;;;;;;;5050794;28;20091;-66
2023/07/20 14:23:33;;;;;;;2.30;0.70;;;;;;;;;;5014643;28;20044;-68
2023/07/20 14:25:58;;;;;;;3.42;0.70;;;;;;;;;;5018975;28;20036;-69
2023/07/20 14:28:24;;;;;;;1.90;0.68;;;;;;;;;;5016518;28;20085;-70
2023/07/20 14:30:49;;;;;;;2.60;0.60;;;;;;;;;;5017497;28;20037;-71
2023/07/20 14:33:17;;;;;;;2.55;0.60;;;;;;;;;;5017113;28;20333;-68
2023/07/20 14:35:42;;;;;;;1.20;0.50;;;;;;;;;;5017331;28;20722;-69
2023/07/20 14:38:07;;;;;;;3.58;0.80;;;;;;;;;;5019022;28;20039;-69
2023/07/20 14:40:33;;;;;;;4.20;0.70;;;;;;;;;;5033152;28;20428;-67